createdAt,value
2023-09-13T00:01:35.687Z,22.52
2023-09-13T00:04:04.098Z,11.38
2023-09-13T00:06:31.873Z,17.45
2023-09-13T00:08:58.884Z,14.75
2023-09-13T00:11:25.941Z,18.25
2023-09-13T00:13:53.123Z,17.27
2023-09-13T00:16:20.258Z,9.95
2023-09-13T00:18:47.621Z,14.30
2023-09-13T00:21:14.771Z,13.40
2023-09-13T00:23:42.716Z,17.63
2023-09-13T00:26:09.984Z,17.30
2023-09-13T00:28:37.020Z,15.55
2023-09-13T00:31:04.237Z,17.85
2023-09-13T00:33:31.497Z,14.45
2023-09-13T00:35:58.753Z,16.60
2023-09-13T00:38:25.986Z,17.67
2023-09-13T00:40:53.423Z,13.95
2023-09-13T00:43:20.515Z,13.65
2023-09-13T00:45:49.856Z,16.23
2023-09-13T00:48:18.403Z,16.85
2023-09-13T00:50:53.731Z,16.00
2023-09-13T00:53:22.714Z,16.70
2023-09-13T00:55:51.544Z,22.52
2023-09-13T00:58:20.197Z,12.95
2023-09-13T01:00:50.132Z,16.48
2023-09-13T01:03:18.040Z,17.35
2023-09-13T01:05:46.531Z,17.35
2023-09-13T01:08:13.784Z,30.20
2023-09-13T01:10:40.820Z,19.38
2023-09-13T01:13:07.961Z,16.73
2023-09-13T01:15:41.158Z,18.58
2023-09-13T01:18:15.377Z,21.13
2023-09-13T01:21:25.713Z,17.75
2023-09-13T01:24:08.279Z,18.90
2023-09-13T01:26:45.413Z,14.30
2023-09-13T01:29:17.895Z,13.43
2023-09-13T01:31:45.301Z,15.07
2023-09-13T01:34:12.365Z,14.45
2023-09-13T01:36:39.540Z,11.65
2023-09-13T01:39:06.835Z,11.63
2023-09-13T01:41:40.990Z,15.10
2023-09-13T01:44:09.382Z,14.82
2023-09-13T01:46:42.239Z,15.15
2023-09-13T01:49:11.440Z,14.63
2023-09-13T01:51:38.819Z,19.35
2023-09-13T01:54:06.186Z,9.68
2023-09-13T01:56:33.504Z,13.63
2023-09-13T01:59:02.096Z,17.38
2023-09-13T02:01:29.567Z,19.02
2023-09-13T02:03:56.813Z,11.63
2023-09-13T02:09:46.262Z,14.23
2023-09-13T02:12:14.441Z,12.68
2023-09-13T02:14:44.375Z,12.35
2023-09-13T02:17:11.586Z,13.82
2023-09-13T02:19:38.721Z,12.85
2023-09-13T02:22:05.882Z,10.73
2023-09-13T02:24:34.305Z,13.57
2023-09-13T02:27:01.661Z,9.60
2023-09-13T02:29:29.049Z,10.30
2023-09-13T02:31:56.492Z,11.38
2023-09-13T02:34:24.048Z,7.47
2023-09-13T02:36:51.680Z,10.32
2023-09-13T02:39:39.071Z,13.00
2023-09-13T02:42:10.508Z,11.45
2023-09-13T02:44:37.801Z,9.32
2023-09-13T02:47:08.434Z,11.38
2023-09-13T02:49:36.190Z,11.30
2023-09-13T02:52:03.362Z,10.27
2023-09-13T02:54:31.707Z,9.52
2023-09-13T02:56:58.991Z,14.10
2023-09-13T02:59:32.630Z,7.27
2023-09-13T03:02:02.944Z,10.05
2023-09-13T03:04:30.167Z,10.13
2023-09-13T03:06:57.526Z,10.35
2023-09-13T03:09:24.809Z,8.65
2023-09-13T03:11:54.794Z,8.38
2023-09-13T03:14:22.046Z,7.13
2023-09-13T03:16:49.369Z,8.50
2023-09-13T03:19:16.812Z,12.68
2023-09-13T03:21:45.824Z,9.63
2023-09-13T03:24:13.637Z,7.35
2023-09-13T03:26:40.935Z,10.75
2023-09-13T03:29:09.079Z,13.77
2023-09-13T03:31:38.240Z,7.80
2023-09-13T03:36:41.242Z,13.30
2023-09-13T03:39:08.362Z,12.77
2023-09-13T03:41:36.181Z,10.02
2023-09-13T03:44:06.296Z,9.30
2023-09-13T03:46:34.110Z,11.00
2023-09-13T03:49:02.334Z,8.07
2023-09-13T03:51:30.004Z,10.70
2023-09-13T03:53:59.724Z,9.20
2023-09-13T03:56:27.910Z,8.95
2023-09-13T03:58:55.630Z,10.18
2023-09-13T04:01:23.322Z,7.72
2023-09-13T04:03:50.565Z,8.70
2023-09-13T04:06:19.518Z,7.72
2023-09-13T04:08:46.747Z,11.13
2023-09-13T04:11:13.905Z,12.50
2023-09-13T04:13:41.167Z,11.55
2023-09-13T04:16:08.716Z,13.13
2023-09-13T04:18:37.090Z,11.13
2023-09-13T04:21:05.510Z,14.27
2023-09-13T04:23:32.633Z,17.67
2023-09-13T04:26:00.039Z,12.48
2023-09-13T04:28:27.308Z,9.70
2023-09-13T04:30:54.484Z,8.85
2023-09-13T04:33:49.299Z,13.88
2023-09-13T04:36:18.536Z,12.63
2023-09-13T04:38:48.186Z,8.75
2023-09-13T04:41:16.831Z,8.68
2023-09-13T04:43:45.254Z,7.40
2023-09-13T04:46:13.895Z,9.77
2023-09-13T04:48:41.236Z,8.38
2023-09-13T04:51:09.957Z,9.50
2023-09-13T04:53:38.409Z,9.30
2023-09-13T04:56:05.668Z,9.18
2023-09-13T04:58:39.422Z,11.40
2023-09-13T05:01:07.252Z,13.75
2023-09-13T05:03:35.366Z,11.30
2023-09-13T05:06:02.516Z,7.25
2023-09-13T05:08:29.552Z,10.38
2023-09-13T05:10:56.723Z,9.98
2023-09-13T05:13:23.961Z,5.60
2023-09-13T05:15:51.111Z,14.68
2023-09-13T05:18:18.826Z,9.23
2023-09-13T05:20:45.861Z,12.38
2023-09-13T05:23:12.914Z,11.60
2023-09-13T05:25:47.239Z,12.13
2023-09-13T05:30:43.676Z,14.88
2023-09-13T05:33:10.964Z,13.85
2023-09-13T05:35:38.162Z,17.35
2023-09-13T05:38:05.385Z,12.70
2023-09-13T05:40:32.681Z,18.30
2023-09-13T05:43:00.030Z,9.52
2023-09-13T05:45:27.176Z,13.57
2023-09-13T05:47:54.333Z,15.45
2023-09-13T05:50:21.970Z,20.73
2023-09-13T05:52:49.167Z,17.90
2023-09-13T05:55:16.306Z,14.30
2023-09-13T05:57:43.326Z,19.13
2023-09-13T06:00:11.089Z,17.92
2023-09-13T06:02:40.787Z,18.33
2023-09-13T06:05:10.497Z,16.27
2023-09-13T06:07:38.837Z,14.70
2023-09-13T06:10:06.598Z,10.40
2023-09-13T06:12:33.753Z,12.15
2023-09-13T06:15:00.876Z,11.90
2023-09-13T06:17:27.929Z,14.68
2023-09-13T06:19:54.971Z,11.15
2023-09-13T06:22:22.223Z,12.18
2023-09-13T06:24:49.419Z,14.23
2023-09-13T06:27:16.462Z,14.85
2023-09-13T06:29:43.604Z,13.40
2023-09-13T06:32:28.117Z,13.07
2023-09-13T06:34:59.580Z,12.27
2023-09-13T06:37:27.941Z,15.13
2023-09-13T06:39:56.265Z,17.40
2023-09-13T06:42:28.507Z,26.77
2023-09-13T06:45:17.722Z,31.25
2023-09-13T06:47:43.811Z,24.40
2023-09-13T06:50:12.250Z,18.23
2023-09-13T06:52:53.904Z,15.10
2023-09-13T06:55:31.949Z,25.73
2023-09-13T06:58:01.148Z,19.23
2023-09-13T07:00:40.319Z,17.95
2023-09-13T07:05:44.001Z,18.98
2023-09-13T07:08:11.008Z,14.25
2023-09-13T07:10:38.700Z,12.50
2023-09-13T07:13:06.712Z,14.90
2023-09-13T07:15:33.767Z,18.52
2023-09-13T07:18:01.352Z,13.85
2023-09-13T07:20:28.516Z,26.33
2023-09-13T07:22:56.006Z,24.80
2023-09-13T07:25:23.043Z,15.25
2023-09-13T07:27:50.094Z,10.27
2023-09-13T07:30:17.045Z,13.52
2023-09-13T07:32:44.160Z,10.07
2023-09-13T07:35:11.310Z,10.02
2023-09-13T07:37:38.440Z,24.98
2023-09-13T07:40:05.872Z,23.15
2023-09-13T07:42:33.143Z,17.23
2023-09-13T07:45:00.416Z,19.40
2023-09-13T07:47:29.762Z,10.77
2023-09-13T07:50:00.547Z,19.63
2023-09-13T07:52:34.606Z,19.90
2023-09-13T07:55:10.055Z,15.57
2023-09-13T07:57:37.928Z,22.73
2023-09-13T08:00:07.418Z,14.40
2023-09-13T08:02:39.016Z,14.15
2023-09-13T08:05:06.558Z,11.23
2023-09-13T08:07:34.011Z,23.02
2023-09-13T08:10:04.172Z,9.35
2023-09-13T08:12:31.957Z,18.90
2023-09-13T08:14:58.912Z,18.95
2023-09-13T08:17:26.198Z,8.23
2023-09-13T08:19:53.290Z,11.13
2023-09-13T08:22:33.213Z,9.80
2023-09-13T08:25:06.641Z,11.05
2023-09-13T08:27:33.704Z,8.20
2023-09-13T08:30:00.804Z,6.82
2023-09-13T08:32:27.783Z,14.15
2023-09-13T08:34:55.892Z,12.57
2023-09-13T08:37:22.964Z,8.63
2023-09-13T08:39:50.036Z,6.75
2023-09-13T08:42:17.027Z,17.48
2023-09-13T08:44:45.844Z,14.10
2023-09-13T08:47:14.493Z,11.68
2023-09-13T08:49:42.666Z,6.82
2023-09-13T08:52:10.745Z,10.50
2023-09-13T08:54:55.515Z,5.45
2023-09-13T08:57:26.072Z,12.30
2023-09-13T08:59:53.233Z,16.92
2023-09-13T09:02:24.249Z,5.13
2023-09-13T09:04:52.566Z,8.60
2023-09-13T09:07:21.274Z,7.25
2023-09-13T09:09:48.976Z,6.63
2023-09-13T09:12:20.177Z,7.63
2023-09-13T09:14:49.758Z,2.45
2023-09-13T09:17:20.942Z,5.68
2023-09-13T09:19:48.141Z,6.90
2023-09-13T09:22:18.063Z,5.38
2023-09-13T09:24:45.195Z,6.38
2023-09-13T09:27:13.885Z,6.82
2023-09-13T09:29:41.592Z,4.88
2023-09-13T09:32:10.456Z,5.57
2023-09-13T09:34:44.216Z,8.52
2023-09-13T09:37:11.589Z,2.58
2023-09-13T09:39:40.619Z,8.18
2023-09-13T09:42:07.835Z,7.72
2023-09-13T09:44:34.833Z,5.93
2023-09-13T09:47:02.474Z,4.50
2023-09-13T09:49:30.258Z,4.18
2023-09-13T09:51:57.394Z,2.30
2023-09-13T09:54:24.490Z,4.53
2023-09-13T09:56:53.389Z,2.97
2023-09-13T09:59:20.520Z,2.55
2023-09-13T10:01:56.876Z,7.38
2023-09-13T10:04:24.143Z,5.78
2023-09-13T10:06:59.389Z,5.95
2023-09-13T10:09:38.882Z,7.72
2023-09-13T10:12:08.589Z,5.97
2023-09-13T10:14:35.683Z,7.93
2023-09-13T10:17:05.761Z,3.35
2023-09-13T10:19:34.120Z,6.30
2023-09-13T10:22:02.333Z,4.93
2023-09-13T10:24:40.315Z,3.08
2023-09-13T10:27:11.552Z,3.88
2023-09-13T10:29:49.452Z,5.57
2023-09-13T10:32:18.377Z,7.65
2023-09-13T10:34:53.809Z,2.58
2023-09-13T10:37:48.968Z,3.17
2023-09-13T10:40:39.262Z,5.22
2023-09-13T10:43:07.291Z,34.05
2023-09-13T10:45:35.067Z,5.25
2023-09-13T10:48:04.963Z,5.70
2023-09-13T10:50:33.162Z,8.70
2023-09-13T10:53:02.112Z,5.05
2023-09-13T10:55:31.071Z,3.33
2023-09-13T10:58:00.449Z,8.75
2023-09-13T11:00:33.574Z,8.80
2023-09-13T11:03:01.483Z,7.53
2023-09-13T11:05:30.325Z,7.13
2023-09-13T11:07:57.582Z,5.53
2023-09-13T11:10:32.301Z,5.45
2023-09-13T11:13:12.655Z,10.05
2023-09-13T11:15:50.582Z,4.20
2023-09-13T11:18:17.996Z,4.50
2023-09-13T11:20:45.354Z,3.42
2023-09-13T11:23:33.255Z,8.88
2023-09-13T11:26:10.811Z,5.15
2023-09-13T11:28:38.315Z,4.32
2023-09-13T11:31:10.787Z,4.32
2023-09-13T11:34:00.915Z,5.63
2023-09-13T11:36:29.314Z,4.22
2023-09-13T11:39:01.782Z,8.20
2023-09-13T11:41:28.991Z,6.05
2023-09-13T11:46:28.988Z,10.18
2023-09-13T11:49:03.161Z,8.05
2023-09-13T11:51:50.609Z,4.55
2023-09-13T11:54:22.568Z,6.93
2023-09-13T11:57:06.332Z,6.78
2023-09-13T11:59:38.665Z,7.13
2023-09-13T12:02:10.128Z,5.68
2023-09-13T12:07:12.666Z,3.75
2023-09-13T12:09:40.934Z,4.30
2023-09-13T12:12:11.582Z,4.38
2023-09-13T12:14:58.185Z,5.32
2023-09-13T12:17:38.237Z,4.78
2023-09-13T12:20:07.587Z,5.25
2023-09-13T12:22:42.061Z,10.85
2023-09-13T12:25:14.228Z,7.90
2023-09-13T12:27:41.990Z,5.32
2023-09-13T12:30:17.423Z,7.88
2023-09-13T12:32:49.607Z,9.43
2023-09-13T12:35:17.229Z,7.35
2023-09-13T12:38:00.393Z,9.98
2023-09-13T12:40:28.955Z,3.80
2023-09-13T12:43:00.066Z,6.95
2023-09-13T12:45:33.615Z,4.53
2023-09-13T12:48:01.938Z,9.52
2023-09-13T12:50:34.450Z,4.85
2023-09-13T12:53:02.960Z,5.05
2023-09-13T12:55:31.565Z,3.65
2023-09-13T12:58:05.208Z,4.50
2023-09-13T13:00:34.517Z,4.07
2023-09-13T13:03:02.468Z,2.20
2023-09-13T13:05:29.605Z,4.15
2023-09-13T13:10:58.681Z,5.28
2023-09-13T13:13:40.146Z,3.45
2023-09-13T13:16:44.979Z,3.78
2023-09-13T13:22:09.154Z,3.33
2023-09-13T13:24:41.957Z,2.30
2023-09-13T13:27:10.403Z,2.78
2023-09-13T13:29:38.826Z,5.45
2023-09-13T13:32:06.674Z,3.95
2023-09-13T13:34:37.686Z,4.35
2023-09-13T13:37:04.951Z,2.65
2023-09-13T13:39:32.031Z,4.03
2023-09-13T13:41:59.078Z,4.00
2023-09-13T13:44:26.629Z,2.83
2023-09-13T13:46:53.630Z,2.75
2023-09-13T13:49:20.752Z,3.38
2023-09-13T13:51:51.730Z,4.95
2023-09-13T13:54:20.328Z,4.20
2023-09-13T13:56:51.734Z,4.03
2023-09-13T13:59:19.146Z,4.80
2023-09-13T14:01:46.662Z,7.50
2023-09-13T14:04:14.557Z,5.03
2023-09-13T14:06:46.787Z,9.02
2023-09-13T14:09:20.055Z,2.92
2023-09-13T14:11:47.862Z,9.23
2023-09-13T14:14:18.718Z,6.70
2023-09-13T14:16:50.242Z,3.08
2023-09-13T14:19:18.014Z,3.65
2023-09-13T14:21:45.278Z,4.22
2023-09-13T14:24:12.547Z,2.35
2023-09-13T14:26:39.638Z,1.95
2023-09-13T14:29:08.808Z,1.67
2023-09-13T14:31:38.858Z,5.30
2023-09-13T14:34:07.757Z,2.67
2023-09-13T14:36:35.169Z,2.92
2023-09-13T14:39:02.335Z,3.33
2023-09-13T14:41:30.379Z,7.65
2023-09-13T14:43:58.094Z,4.10
2023-09-13T14:46:25.402Z,5.72
2023-09-13T14:48:54.320Z,3.28
2023-09-13T14:51:21.944Z,2.95
2023-09-13T14:53:49.122Z,2.38
2023-09-13T14:56:16.178Z,3.28
2023-09-13T14:58:43.534Z,5.55
2023-09-13T15:01:11.113Z,7.60
2023-09-13T15:03:39.428Z,2.80
2023-09-13T15:06:06.522Z,8.98
2023-09-13T15:08:33.857Z,3.80
2023-09-13T15:11:01.011Z,3.85
2023-09-13T15:13:28.016Z,2.13
2023-09-13T15:15:55.107Z,5.25
2023-09-13T15:18:22.285Z,3.47
2023-09-13T15:20:49.341Z,3.78
2023-09-13T15:23:16.476Z,3.33
2023-09-13T15:25:43.499Z,4.13
2023-09-13T15:28:10.539Z,5.55
2023-09-13T15:30:37.814Z,5.40
2023-09-13T15:33:05.327Z,5.70
2023-09-13T15:35:32.620Z,2.30
2023-09-13T15:37:59.758Z,3.75
2023-09-13T15:40:26.830Z,5.65
2023-09-13T15:42:57.917Z,8.40
2023-09-13T15:45:25.090Z,6.15
2023-09-13T15:47:52.110Z,7.13
2023-09-13T15:50:20.590Z,4.43
2023-09-13T15:52:47.646Z,6.28
2023-09-13T15:55:15.222Z,5.85
2023-09-13T15:57:42.310Z,6.65
2023-09-13T16:00:10.629Z,8.13
2023-09-13T16:02:37.791Z,12.32
2023-09-13T16:05:06.376Z,9.23
2023-09-13T16:07:37.811Z,5.05
2023-09-13T16:10:08.385Z,5.40
2023-09-13T16:12:35.518Z,3.17
2023-09-13T16:15:02.641Z,6.45
2023-09-13T16:17:29.844Z,4.43
2023-09-13T16:19:57.193Z,4.07
2023-09-13T16:22:24.225Z,6.85
2023-09-13T16:24:51.336Z,5.22
2023-09-13T16:27:20.545Z,7.50
2023-09-13T16:29:47.817Z,8.05
2023-09-13T16:32:18.901Z,3.85
2023-09-13T16:34:46.130Z,4.57
2023-09-13T16:37:13.222Z,11.13
2023-09-13T16:39:41.945Z,10.30
2023-09-13T16:42:09.769Z,5.88
2023-09-13T16:44:36.843Z,4.78
2023-09-13T16:47:04.155Z,4.45
2023-09-13T16:49:31.584Z,7.13
2023-09-13T16:51:59.378Z,6.10
2023-09-13T16:54:28.042Z,4.75
2023-09-13T16:56:55.608Z,6.53
2023-09-13T16:59:22.616Z,5.65
2023-09-13T17:01:49.723Z,8.90
2023-09-13T17:04:17.066Z,5.78
2023-09-13T17:06:44.248Z,8.63
2023-09-13T17:09:12.395Z,5.57
2023-09-13T17:11:41.672Z,6.88
2023-09-13T17:14:08.956Z,7.15
2023-09-13T17:16:36.391Z,9.82
2023-09-13T17:19:04.362Z,5.93
2023-09-13T17:21:32.063Z,5.00
2023-09-13T17:23:59.211Z,6.20
2023-09-13T17:26:26.272Z,5.00
2023-09-13T17:28:53.320Z,6.72
2023-09-13T17:31:20.569Z,5.53
2023-09-13T17:33:47.691Z,5.60
2023-09-13T17:36:31.819Z,5.78
2023-09-13T17:39:09.783Z,11.02
2023-09-13T17:41:38.498Z,4.35
2023-09-13T17:44:05.787Z,9.20
2023-09-13T17:46:32.907Z,7.57
2023-09-13T17:49:01.247Z,5.63
2023-09-13T17:51:29.914Z,6.30
2023-09-13T17:53:58.392Z,3.10
2023-09-13T17:56:26.692Z,5.70
2023-09-13T17:58:53.746Z,6.50
2023-09-13T18:01:21.026Z,7.18
2023-09-13T18:03:48.741Z,8.95
2023-09-13T18:06:15.953Z,5.25
2023-09-13T18:11:38.964Z,5.20
2023-09-13T18:14:07.547Z,3.50
2023-09-13T18:16:34.587Z,16.02
2023-09-13T18:19:02.185Z,11.48
2023-09-13T18:21:29.455Z,6.50
2023-09-13T18:23:56.603Z,4.43
2023-09-13T18:26:23.748Z,6.35
2023-09-13T18:28:52.943Z,9.88
2023-09-13T18:31:20.144Z,6.78
2023-09-13T18:33:47.765Z,4.38
2023-09-13T18:36:14.948Z,6.38
2023-09-13T18:38:43.614Z,7.25
2023-09-13T18:41:11.394Z,5.80
2023-09-13T18:43:38.486Z,6.30
2023-09-13T18:46:06.793Z,5.68
2023-09-13T18:48:35.103Z,8.73
2023-09-13T18:51:04.905Z,8.63
2023-09-13T18:53:32.184Z,7.85
2023-09-13T18:55:59.980Z,8.50
2023-09-13T18:58:30.491Z,9.32
2023-09-13T19:00:59.217Z,4.93
2023-09-13T19:03:28.128Z,7.13
2023-09-13T19:05:59.318Z,3.10
2023-09-13T19:08:28.507Z,5.72
2023-09-13T19:10:56.466Z,9.10
2023-09-13T19:13:23.684Z,11.30
2023-09-13T19:15:59.212Z,3.05
2023-09-13T19:18:30.918Z,3.97
2023-09-13T19:20:58.236Z,3.33
2023-09-13T19:23:27.063Z,6.28
2023-09-13T19:25:57.109Z,4.13
2023-09-13T19:28:27.628Z,6.70
2023-09-13T19:30:56.705Z,4.63
2023-09-13T19:33:26.010Z,5.72
2023-09-13T19:35:55.346Z,16.92
2023-09-13T19:38:29.914Z,7.25
2023-09-13T19:40:57.993Z,9.23
2023-09-13T19:43:26.474Z,3.53
2023-09-13T19:45:59.190Z,3.25
2023-09-13T19:48:27.418Z,4.13
2023-09-13T19:51:08.254Z,2.65
2023-09-13T19:53:36.593Z,11.32
2023-09-13T19:56:07.778Z,8.00
2023-09-13T19:58:38.789Z,3.92
2023-09-13T20:01:11.052Z,6.50
2023-09-13T20:03:39.631Z,6.30
2023-09-13T20:06:13.711Z,9.40
2023-09-13T20:08:40.894Z,5.10
2023-09-13T20:11:09.584Z,8.73
2023-09-13T20:13:41.838Z,3.17
2023-09-13T20:16:10.025Z,5.45
2023-09-13T20:18:37.089Z,11.40
2023-09-13T20:21:04.447Z,4.85
2023-09-13T20:23:33.840Z,6.68
2023-09-13T20:26:01.550Z,6.53
2023-09-13T20:28:31.348Z,5.85
2023-09-13T20:31:00.059Z,6.55
2023-09-13T20:33:27.254Z,3.97
2023-09-13T20:35:54.408Z,6.07
2023-09-13T20:38:24.107Z,5.97
2023-09-13T20:40:52.433Z,3.70
2023-09-13T20:43:19.930Z,6.47
2023-09-13T20:45:48.132Z,9.20
2023-09-13T20:48:15.455Z,7.43
2023-09-13T20:50:43.245Z,5.35
2023-09-13T20:53:10.248Z,5.60
2023-09-13T20:55:38.125Z,5.05
2023-09-13T20:58:05.308Z,5.55
2023-09-13T21:00:33.138Z,6.25
2023-09-13T21:03:00.743Z,8.02
2023-09-13T21:05:27.873Z,5.28
2023-09-13T21:07:55.901Z,12.23
2023-09-13T21:10:23.202Z,6.40
2023-09-13T21:12:50.303Z,7.82
2023-09-13T21:15:17.582Z,9.50
2023-09-13T21:17:44.820Z,4.63
2023-09-13T21:20:12.122Z,9.45
2023-09-13T21:22:39.721Z,7.63
2023-09-13T21:25:07.259Z,6.50
2023-09-13T21:27:34.440Z,9.23
2023-09-13T21:30:01.794Z,8.70
2023-09-13T21:32:29.002Z,10.32
2023-09-13T21:35:02.239Z,4.43
2023-09-13T21:37:34.579Z,7.45
2023-09-13T21:40:03.342Z,9.63
2023-09-13T21:42:30.667Z,8.20
2023-09-13T21:44:57.984Z,7.22
2023-09-13T21:47:26.380Z,5.03
2023-09-13T21:49:53.653Z,9.35
2023-09-13T21:52:22.143Z,6.30
2023-09-13T21:54:51.177Z,9.30
2023-09-13T21:57:20.051Z,7.25
2023-09-13T21:59:47.369Z,6.43
2023-09-13T22:02:14.884Z,5.32
2023-09-13T22:04:42.215Z,5.57
2023-09-13T22:07:15.521Z,10.83
2023-09-13T22:09:43.957Z,6.38
2023-09-13T22:12:11.670Z,7.13
2023-09-13T22:14:38.758Z,7.38
2023-09-13T22:17:05.858Z,8.43
2023-09-13T22:19:33.001Z,8.95
2023-09-13T22:22:01.135Z,4.68
2023-09-13T22:24:28.851Z,8.57
2023-09-13T22:26:56.856Z,8.10
2023-09-13T22:29:24.655Z,7.60
2023-09-13T22:31:53.251Z,11.40
2023-09-13T22:34:20.298Z,7.55
2023-09-13T22:36:48.501Z,5.63
2023-09-13T22:39:15.889Z,13.45
2023-09-13T22:41:44.187Z,15.48
2023-09-13T22:44:11.694Z,9.57
2023-09-13T22:46:39.120Z,8.80
2023-09-13T22:49:07.421Z,8.63
2023-09-13T22:51:34.520Z,9.05
2023-09-13T22:54:02.982Z,6.90
2023-09-13T22:56:30.782Z,15.68
2023-09-13T22:58:57.860Z,10.30
2023-09-13T23:01:24.936Z,10.63
2023-09-13T23:03:52.156Z,7.20
2023-09-13T23:06:20.074Z,7.90
2023-09-13T23:08:47.462Z,14.50
2023-09-13T23:11:15.566Z,14.10
2023-09-13T23:13:43.216Z,9.32
2023-09-13T23:16:10.486Z,7.10
2023-09-13T23:18:37.688Z,8.95
2023-09-13T23:21:04.984Z,12.88
2023-09-13T23:23:32.310Z,7.95
2023-09-13T23:26:05.588Z,14.40
2023-09-13T23:28:33.554Z,9.38
2023-09-13T23:31:17.797Z,10.23
2023-09-13T23:33:46.654Z,7.93
2023-09-13T23:36:15.748Z,6.55
2023-09-13T23:38:45.507Z,11.45
2023-09-13T23:41:18.804Z,7.85
2023-09-13T23:43:50.063Z,16.88
2023-09-13T23:46:17.793Z,9.02
2023-09-13T23:48:45.767Z,11.02
2023-09-13T23:51:16.789Z,6.32
2023-09-13T23:53:50.277Z,7.57
2023-09-13T23:56:22.458Z,5.67
2023-09-13T23:58:50.169Z,6.72
